x

Portland 12 Nm Southeast Of Portland,me (44007) Wave Buoy

3:50am - Sat 22nd Sep 2018 All times are EDT. -4 hours from GMT.

  • Sig Wave height 7.2ft
  • Swell Direction
  • Peak Period 7s
  • Average Period 6s
  • Wind
    25mph, 29mph gusts
  • Sea Temp 60°f
  • Air Temp 65°f
  • Sea Pressure 1007mb
  • Portland 12 Nm Southeast Of Portland,me
  • Portland 12 Nm Southeast Of Portland,me

More Historic Weather Station data

Upgrade to MSW Pro to gain access to the past 30 days of data for over 8000 Wavebouys and Weather Stations around the globe.

Join

Comparision Forecast

View Surf forecast
   
Sat 09/22 3:50am 7ft 7s 6s 25 29 mph 1007mb 60f 65f
2:50am 7.5ft 7s 6s 25 29 mph 1007.2mb 61f 65f
1:50am 7ft 7s 6s 27 31 mph 1007.9mb 61f 64f
12:50am 7ft 6s 5s 22 27 mph 1009.1mb 61f 64f
Fri 09/21 11:50pm 7ft 7s 6s 22 27 mph 1010mb 61f 63f
10:50pm 6ft 6s 5s 22 27 mph 1011.2mb 61f 63f
9:50pm 6ft 6s 5s 25 29 mph 1012.2mb 61f 63f
8:50pm 6ft 6s 5s 25 29 mph 1012.8mb 61f 63f
7:50pm 6ft 6s 5s 25 29 mph 1013.7mb 61f 63f
6:50pm 6ft 6s 5s 25 29 mph 1014.5mb 61f 63f
5:50pm 5ft 11s 5s 25 29 mph 1015.7mb 61f 62f
4:50pm 5ft 10s 5s 22 29 mph 1017.1mb 61f 62f
3:50pm 5.5ft 10s 5s 20 25 mph 1018.5mb 61f 62f
2:50pm 5ft 10s 6s 20 25 mph 1019.8mb 61f 62f
1:50pm 4.5ft 10s 5s 18 22 mph 1021.3mb 61f 62f
12:50pm 4ft 10s 5s 16 18 mph 1022.4mb 61f 62f
11:50am 3.5ft 10s 5s 16 18 mph 1023.3mb 61f 62f
10:50am 3.5ft 11s 5s 16 18 mph 1023.9mb 61f 62f
9:50am 3.5ft 11s 5s 13 16 mph 1024.9mb 61f 61f
8:50am 3.5ft 10s 5s 11 16 mph 1025.7mb 61f 61f
7:50am 3ft 10s 6s 13 16 mph 1025.3mb 61f 61f
6:50am 3.5ft 11s 6s 11 13 mph 1025.7mb 61f 61f
5:50am 3.5ft 12s 7s 11 13 mph 1025.7mb 61f 60f
4:50am 3.5ft 10s 7s 9 11 mph 1025.5mb 61f 60f
3:50am 4ft 11s 8s 9 11 mph 1025.7mb 61f 60f
2:50am 3.5ft 11s 7s 9 11 mph 1025.8mb 61f 60f
1:50am 3ft 11s 6s 7 7 mph 1026.2mb 61f 60f
12:50am 3ft 10s 6s 7 9 mph 1026.4mb 61f 60f
Thu 09/20 11:50pm 3.5ft 10s 6s 4 7 mph 1026.5mb 61f 59f
10:50pm 3.5ft 7s 6s 7 9 mph 1025.9mb 61f 59f
9:50pm 3.5ft 6s 6s 7 9 mph 1026mb 61f 59f
8:50pm 3.5ft 7s 6s 7 7 mph 1025.8mb 61f 59f
7:50pm 3.5ft 7s 6s 7 9 mph 1025.8mb 61f 58f
6:50pm 4.5ft 11s 7s 4 7 mph 1025.2mb 61f 58f
5:50pm 4.5ft 8s 6s 4 7 mph 1025.1mb 62f 58f
4:50pm 4ft 10s 6s 4 7 mph 1024.8mb 62f 57f
3:50pm 3.5ft 9s 6s 7 9 mph 1024.9mb 61f 56f
2:50pm 3.5ft 11s 6s 9 11 mph 1024.9mb 61f 56f
12:50pm 3.5ft 6s 5s 11 13 mph 1025.2mb 61f 57f
10:50am 4ft 7s 5s 9 11 mph 1025.6mb 61f 57f
7:50am 4.5ft 8s 5s 13 16 mph 1023mb 61f 57f
6:50am 4.5ft 7s 5s 13 18 mph 1022.2mb 61f 57f
5:50am 4ft 8s 5s 13 18 mph 1021.8mb 61f 57f
4:50am 3.5ft 6s 5s 13 18 mph 1021.5mb 61f 58f
3:50am 3.5ft 4s 4s 18 20 mph 1020.9mb 61f 56f
2:50am 3ft 8s 4s 16 18 mph 1020.8mb 61f 58f
1:50am 3ft 9s 4s 16 18 mph 1020.4mb 61f 56f
Wed 09/19 11:50pm 3ft 7s 4s 18 20 mph 1019.6mb 61f 59f
10:50pm 3ft 6s 4s 18 20 mph 1019.3mb 61f 60f
9:50pm 3ft 6s 4s 18 22 mph 1018.6mb 61f 60f
8:50pm 3ft 6s 4s 18 20 mph 1018.5mb 61f 61f
7:50pm 3ft 6s 4s 18 20 mph 1017.7mb 61f 62f
6:50pm 2.5ft 6s 5s 13 18 mph 1016.9mb 62f 62f
5:50pm 2.5ft 6s 5s 2 4 mph 1016.9mb 61f 60f
4:50pm 2.5ft 7s 5s 11 13 mph 1015.6mb 61f 59f
3:50pm 2.5ft 6s 5s 9 11 mph 1015.4mb 61f 59f
2:50pm 2.5ft 11s 5s 7 9 mph 1015.3mb 62f 60f
1:50pm 2.5ft 5s 5s 9 11 mph 1015.3mb 61f 59f
12:50pm 3ft 5s 5s 13 16 mph 1015.2mb 61f 59f
11:50am 3ft 5s 4s 13 16 mph 1015.3mb 61f 58f
10:50am 3ft 5s 4s 11 16 mph 1015.1mb 61f 58f
9:50am 3ft 5s 4s 13 18 mph 1014.3mb 60f 57f
8:50am 2.5ft 5s 4s 18 20 mph 1013.4mb 60f 56f
7:50am  -   -   -  18 22 mph 1012.8mb 61f 57f
6:50am 3ft 4s 4s 16 18 mph 1012.2mb 61f 57f
5:50am 3ft 3s 4s 16 20 mph 1011.7mb 61f 58f
4:50am 2.5ft 11s 4s 18 22 mph 1011.2mb 61f 57f
3:50am 3ft 10s 4s 18 22 mph 1010.3mb 61f 58f
2:50am 3ft 6s 4s 18 22 mph 1009.5mb 61f 59f
1:50am 3ft 6s 4s 22 27 mph 1009.2mb 62f 61f
12:50am 2.5ft 10s 5s 18 25 mph 1008.7mb 62f 63f
Tue 09/18 11:50pm 2.5ft 6s 6s 11 13 mph 1008.4mb 62f 63f
10:50pm 2.5ft 6s 5s 2 4 mph 1007.5mb 62f 63f
9:50pm 2.5ft 6s 5s 4 4 mph 1006.7mb 62f 63f
8:50pm 2.5ft 5s 5s 4 7 mph 1006.7mb 62f 63f
7:50pm 2.5ft 4s 5s 7 7 mph 1006.4mb 62f 63f
6:50pm 2.5ft 11s 5s 7 7 mph 1006.1mb 62f 63f
5:50pm 2.5ft 9s 6s 9 9 mph 1006mb 62f 63f
2:50pm 2.5ft 8s 7s 4 4 mph 1005.7mb 63f 64f
1:50pm 2.5ft 11s 6s 7 7 mph 1006.2mb 62f 64f
12:50pm 2.5ft 11s 6s 4 7 mph 1006.1mb 62f 63f
11:50am 2.5ft 11s 6s 11 11 mph 1006.7mb 62f 63f
10:50am 2.5ft 11s 5s 2 4 mph 1007.5mb 62f 64f
9:50am 2.5ft 11s 5s 9 11 mph 1008.1mb 62f 64f